Terminal Aerodrome Forecast
Issued by NWS

Home | Current Version | Previous Version | Text Only | Print | Product List | Glossary On
Versions: 1 2 3 4 5 6 7 8 9 10 11 12
000
FTUS44 KLUB 062350
TAFCDS
TAF
KCDS 062350Z 0700/0724 16012KT P6SM SCT050 OVC150
      TEMPO 0702/0704 5SM -TSRA BKN050CB BKN120
     FM070400 14012KT P6SM BKN040
      TEMPO 0704/0708 VRB15G25KT 2SM TSRA SCT015 OVC030CB
     FM070800 35012KT 5SM TSRA OVC025CB
     FM071200 02010KT P6SM SCT020 BKN040=

USA.gov is the U.S. government's official web portal to all federal, state and local government web resources and services.